Time;durP1;ratioP1;P1;durP2;ratioP2;P2;SDS_P1;SDS_P2;PMS_P1;PMS_P2;Temp;Humidity;BMP_temperature;BMP_pressure;BME280_temperature;BME280_humidity;BME280_pressure;Samples;Min_cycle;Max_cycle;Signal;HPM_P1;HPM_P2
2022/04/20 00:01:52;;;;;;;9.20;3.42;;;;;;;11.22;50.28;101195.28;5063219;28;20059;-72
2022/04/20 00:04:19;;;;;;;9.70;3.40;;;;;;;11.18;49.43;101193.69;5063783;28;20082;-72
2022/04/20 00:06:45;;;;;;;9.18;3.80;;;;;;;11.06;49.82;101180.97;5055455;28;20041;-72
2022/04/20 00:09:12;;;;;;;9.07;3.55;;;;;;;11.00;50.26;101192.81;5061041;28;20095;-72
2022/04/20 00:11:39;;;;;;;9.43;3.50;;;;;;;10.96;49.70;101197.53;5067514;28;20076;-72
2022/04/20 00:14:05;;;;;;;9.23;3.22;;;;;;;10.87;50.94;101189.56;5060036;28;20071;-73
2022/04/20 00:16:32;;;;;;;11.52;3.55;;;;;;;10.81;51.58;101196.69;5067282;28;20570;-73
2022/04/20 00:18:58;;;;;;;11.70;3.33;;;;;;;10.75;50.46;101197.44;5067928;28;20049;-75
2022/04/20 00:21:26;;;;;;;9.85;3.63;;;;;;;10.67;51.27;101190.28;5063649;28;20057;-72
2022/04/20 00:23:54;;;;;;;7.85;3.63;;;;;;;10.63;52.27;101189.47;5054685;28;20051;-72
2022/04/20 00:26:20;;;;;;;9.25;3.47;;;;;;;10.61;51.95;101197.34;5066275;28;20127;-73
2022/04/20 00:28:47;;;;;;;10.63;3.35;;;;;;;10.63;52.12;101193.00;5058441;28;20131;-72
2022/04/20 00:31:13;;;;;;;9.95;3.22;;;;;;;10.64;51.38;101196.56;5057389;28;20132;-73
2022/04/20 00:33:40;;;;;;;12.85;3.92;;;;;;;10.58;53.06;101198.91;5065870;28;20048;-73
2022/04/20 00:36:09;;;;;;;8.32;3.72;;;;;;;10.50;53.67;101205.59;5055810;28;20572;-73
2022/04/20 00:38:35;;;;;;;9.25;3.75;;;;;;;10.40;54.61;101196.03;5050118;28;20049;-75
2022/04/20 00:41:02;;;;;;;9.02;3.50;;;;;;;10.38;52.54;101203.13;5063130;28;20052;-72
2022/04/20 00:43:28;;;;;;;8.75;3.55;;;;;;;10.32;52.66;101207.41;5062732;28;20128;-72
2022/04/20 00:45:57;;;;;;;11.50;3.78;;;;;;;10.21;53.78;101212.06;5066435;28;20365;-73
2022/04/20 00:48:24;;;;;;;10.65;3.70;;;;;;;10.11;53.36;101202.53;5065648;28;20599;-73
2022/04/20 00:50:50;;;;;;;9.43;3.50;;;;;;;10.10;54.99;101211.97;5060502;28;20136;-72
2022/04/20 00:53:17;;;;;;;10.63;3.92;;;;;;;10.11;54.37;101213.59;5053151;28;20553;-74
2022/04/20 00:55:43;;;;;;;11.02;4.13;;;;;;;10.11;55.11;101208.06;5053386;28;20055;-72
2022/04/20 00:58:10;;;;;;;8.77;3.72;;;;;;;10.06;56.07;101216.69;5056991;28;20052;-72
2022/04/20 01:00:36;;;;;;;8.73;3.80;;;;;;;9.99;55.95;101213.81;5056818;28;20491;-74
2022/04/20 01:03:04;;;;;;;11.65;4.10;;;;;;;10.00;56.21;101211.88;5061956;28;20156;-72
2022/04/20 01:05:31;;;;;;;7.55;3.47;;;;;;;9.97;57.34;101207.09;5060510;28;20041;-72
2022/04/20 01:07:58;;;;;;;10.45;4.10;;;;;;;9.92;56.74;101211.00;5058794;28;20433;-71
2022/04/20 01:10:25;;;;;;;13.23;4.82;;;;;;;9.91;56.91;101214.16;5060175;28;20049;-74
2022/04/20 01:12:51;;;;;;;11.25;4.20;;;;;;;9.87;57.34;101200.31;5061112;28;20049;-73
2022/04/20 01:15:18;;;;;;;12.10;3.58;;;;;;;9.84;57.79;101203.81;5063983;28;20144;-71
2022/04/20 01:17:45;;;;;;;10.80;3.95;;;;;;;9.82;58.08;101217.22;5061259;28;20206;-74
2022/04/20 01:20:13;;;;;;;8.38;3.63;;;;;;;9.80;57.65;101214.06;5063935;28;20165;-74
2022/04/20 01:22:41;;;;;;;9.00;3.80;;;;;;;9.77;57.83;101206.53;5059683;28;20052;-73
2022/04/20 01:25:08;;;;;;;13.45;4.18;;;;;;;9.72;57.34;101204.09;5063532;28;20053;-72
2022/04/20 01:27:39;;;;;;;9.57;4.22;;;;;;;9.74;58.41;101210.03;5060239;28;20084;-72
2022/04/20 01:30:07;;;;;;;11.35;3.80;;;;;;;9.70;56.43;101214.75;5064654;28;20049;-70
2022/04/20 01:32:33;;;;;;;9.15;3.58;;;;;;;9.63;58.56;101205.59;5060585;28;20056;-72
2022/04/20 01:35:00;;;;;;;11.27;4.28;;;;;;;9.61;58.88;101217.00;5054622;28;20139;-72
2022/04/20 01:37:28;;;;;;;10.18;3.60;;;;;;;9.61;58.09;101211.47;5061908;28;20423;-72
2022/04/20 01:39:55;;;;;;;8.00;3.95;;;;;;;9.56;59.30;101205.50;5060405;28;20059;-71
2022/04/20 01:42:22;;;;;;;9.57;4.20;;;;;;;9.51;59.96;101200.31;5060871;28;20442;-71
2022/04/20 01:44:48;;;;;;;10.95;4.10;;;;;;;9.45;59.86;101196.31;5065346;28;20056;-73
2022/04/20 01:47:15;;;;;;;10.85;3.88;;;;;;;9.41;59.72;101204.53;5063060;28;20051;-71
2022/04/20 01:49:42;;;;;;;10.73;4.78;;;;;;;9.41;59.76;101206.50;5054651;28;20119;-72
2022/04/20 01:52:08;;;;;;;12.70;4.32;;;;;;;9.39;60.69;101201.34;5058860;28;20507;-73
2022/04/20 01:54:35;;;;;;;10.43;4.93;;;;;;;9.35;59.79;101197.00;5056458;28;20049;-72
2022/04/20 01:57:02;;;;;;;9.80;3.78;;;;;;;9.35;60.58;101208.03;5069611;28;20837;-73
2022/04/20 01:59:28;;;;;;;10.05;4.43;;;;;;;9.33;59.95;101210.38;5058548;28;20051;-72
2022/04/20 02:04:40;;;;;;;11.38;3.85;;;;;;;9.30;59.34;101211.94;5067589;28;20246;-72
2022/04/20 02:07:06;;;;;;;10.98;4.55;;;;;;;9.25;59.79;101214.22;5067541;28;20179;-73
2022/04/20 02:09:34;;;;;;;8.02;3.85;;;;;;;9.23;60.65;101211.03;5067914;28;20053;-72
2022/04/20 02:12:01;;;;;;;12.15;4.72;;;;;;;9.21;60.13;101211.41;5061857;28;20488;-72
2022/04/20 02:14:27;;;;;;;11.85;4.22;;;;;;;9.20;59.96;101212.59;5064428;28;20045;-71
2022/04/20 02:16:54;;;;;;;12.63;4.40;;;;;;;9.20;59.40;101212.59;5067149;28;20049;-73
2022/04/20 02:19:21;;;;;;;11.60;4.63;;;;;;;9.17;60.22;101209.78;5065922;28;20052;-72
2022/04/20 02:21:47;;;;;;;11.50;4.28;;;;;;;9.16;60.54;101214.53;5053448;28;20131;-71
2022/04/20 02:24:14;;;;;;;11.07;4.90;;;;;;;9.17;60.40;101207.00;5065998;28;20052;-73
2022/04/20 02:26:41;;;;;;;11.75;4.47;;;;;;;9.16;59.92;101206.25;5060348;28;20052;-71
2022/04/20 02:29:08;;;;;;;12.60;4.70;;;;;;;9.11;59.90;101209.31;5062889;28;20128;-73
2022/04/20 02:31:34;;;;;;;14.52;5.03;;;;;;;9.09;60.55;101211.66;5063545;28;20048;-71
2022/04/20 02:34:01;;;;;;;11.15;4.88;;;;;;;9.06;60.26;101215.19;5068869;28;20056;-72
2022/04/20 02:36:28;;;;;;;15.23;5.60;;;;;;;9.03;61.78;101204.88;5065352;28;20045;-73
2022/04/20 02:38:55;;;;;;;13.82;4.95;;;;;;;9.00;60.72;101207.59;5069947;28;20127;-75
2022/04/20 02:41:21;;;;;;;11.93;4.55;;;;;;;8.93;60.82;101208.28;5066328;28;20290;-73
2022/04/20 02:43:48;;;;;;;14.30;5.20;;;;;;;8.93;62.90;101219.34;5069186;28;20131;-72
2022/04/20 02:46:15;;;;;;;14.65;5.10;;;;;;;8.91;62.02;101213.38;5071232;28;20059;-72
2022/04/20 02:48:42;;;;;;;9.75;4.18;;;;;;;8.86;62.14;101213.72;5071470;28;20071;-71
2022/04/20 02:51:08;;;;;;;14.05;5.25;;;;;;;8.83;62.16;101213.66;5065009;28;20489;-72
2022/04/20 02:53:35;;;;;;;16.10;4.68;;;;;;;8.77;62.96;101217.94;5058961;28;20056;-73
2022/04/20 02:56:01;;;;;;;14.85;5.03;;;;;;;8.70;63.30;101221.38;5070006;28;20078;-73
2022/04/20 02:58:28;;;;;;;13.15;5.15;;;;;;;8.64;63.14;101220.09;5074723;28;20143;-72
2022/04/20 03:00:54;;;;;;;11.38;4.70;;;;;;;8.61;64.07;101226.34;5070704;28;20048;-72
2022/04/20 03:03:21;;;;;;;10.73;4.80;;;;;;;8.62;64.03;101225.22;5070833;28;20127;-73
2022/04/20 03:05:48;;;;;;;11.48;4.68;;;;;;;8.61;63.35;101223.59;5065170;28;20058;-72
2022/04/20 03:08:15;;;;;;;12.20;5.30;;;;;;;8.57;62.72;101222.75;5066894;28;20060;-72
2022/04/20 03:10:41;;;;;;;12.50;5.03;;;;;;;8.53;63.07;101224.66;5085287;28;20041;-72
2022/04/20 03:13:08;;;;;;;11.93;4.47;;;;;;;8.53;63.90;101224.66;5061503;28;20067;-74
2022/04/20 03:15:34;;;;;;;14.38;4.78;;;;;;;8.49;64.55;101225.78;5070630;28;20050;-73
2022/04/20 03:18:01;;;;;;;12.43;5.65;;;;;;;8.49;63.23;101221.06;5061456;28;20049;-72
2022/04/20 03:20:28;;;;;;;9.27;4.80;;;;;;;8.41;63.55;101224.88;5061468;28;20087;-70
2022/04/20 03:22:54;;;;;;;11.52;4.90;;;;;;;8.38;64.98;101227.56;5068713;28;20143;-73
2022/04/20 03:25:21;;;;;;;10.45;4.50;;;;;;;8.33;64.97;101222.38;5058525;28;20057;-73
2022/04/20 03:27:47;;;;;;;12.90;4.60;;;;;;;8.30;66.36;101231.41;5056064;28;20135;-71
2022/04/20 03:30:14;;;;;;;12.75;5.10;;;;;;;8.26;66.37;101231.31;5069898;28;20076;-74
2022/04/20 03:32:41;;;;;;;12.13;4.68;;;;;;;8.22;66.46;101227.72;5065461;28;20048;-72
2022/04/20 03:35:08;;;;;;;15.23;4.93;;;;;;;8.18;67.04;101229.59;5069165;28;20123;-72
2022/04/20 03:37:36;;;;;;;12.65;5.18;;;;;;;8.15;66.27;101238.59;5069273;28;20135;-73
2022/04/20 03:40:08;;;;;;;10.98;4.80;;;;;;;8.13;66.16;101229.88;5069753;28;20277;-72
2022/04/20 03:42:34;;;;;;;14.68;5.35;;;;;;;8.12;66.92;101239.34;5069709;28;20106;-73
2022/04/20 03:45:01;;;;;;;13.40;4.82;;;;;;;8.13;67.06;101240.13;5069766;28;20083;-71
2022/04/20 03:47:28;;;;;;;14.55;5.07;;;;;;;8.14;66.96;101242.53;5051938;28;20048;-72
2022/04/20 03:49:54;;;;;;;12.25;4.72;;;;;;;8.14;66.79;101234.25;5058705;28;20135;-73
2022/04/20 03:52:21;;;;;;;13.68;5.85;;;;;;;8.15;66.36;101241.34;5067628;28;20063;-73
2022/04/20 03:54:48;;;;;;;13.02;5.63;;;;;;;8.17;66.48;101243.75;5069619;28;20127;-72
2022/04/20 03:57:14;;;;;;;16.40;5.32;;;;;;;8.16;67.45;101234.66;5076125;28;20067;-73
2022/04/20 03:59:40;;;;;;;14.88;5.78;;;;;;;8.16;67.01;101233.91;5069443;28;20084;-71
2022/04/20 04:02:07;;;;;;;15.73;5.40;;;;;;;8.17;67.29;101232.72;5057017;28;20620;-72
2022/04/20 04:04:35;;;;;;;11.10;4.90;;;;;;;8.14;67.39;101236.22;5060572;28;20131;-72
2022/04/20 04:07:01;;;;;;;12.10;4.97;;;;;;;8.14;66.78;101239.78;5050190;28;20141;-73
2022/04/20 04:09:28;;;;;;;12.85;4.93;;;;;;;8.09;67.18;101239.28;5075171;28;20079;-73
2022/04/20 04:11:54;;;;;;;10.80;4.78;;;;;;;8.06;67.64;101245.53;5069889;28;20106;-72
2022/04/20 04:14:22;;;;;;;11.50;5.03;;;;;;;8.02;67.62;101253.72;5068809;28;20493;-72
2022/04/20 04:16:48;;;;;;;12.48;4.82;;;;;;;7.98;67.77;101253.69;5065707;28;20066;-72
2022/04/20 04:19:15;;;;;;;12.85;5.30;;;;;;;7.94;67.69;101261.06;5063984;28;20060;-72
2022/04/20 04:21:42;;;;;;;11.70;4.88;;;;;;;7.90;68.28;101260.22;5067884;28;20516;-72
2022/04/20 04:24:09;;;;;;;14.48;5.07;;;;;;;7.88;68.83;101259.78;5069227;28;20143;-74
2022/04/20 04:26:36;;;;;;;13.32;6.13;;;;;;;7.84;69.27;101260.88;5057737;28;20780;-73
2022/04/20 04:29:02;;;;;;;14.38;5.40;;;;;;;7.81;69.34;101262.41;5068205;28;20098;-72
2022/04/20 04:31:29;;;;;;;12.27;5.18;;;;;;;7.81;68.72;101267.94;5058122;28;20055;-74
2022/04/20 04:33:56;;;;;;;15.30;5.78;;;;;;;7.77;69.58;101263.50;5068831;28;20155;-72
2022/04/20 04:36:22;;;;;;;14.75;5.75;;;;;;;7.77;70.26;101261.53;5068679;28;20131;-72
2022/04/20 04:38:49;;;;;;;15.95;6.20;;;;;;;7.74;71.58;101267.75;5068549;28;20049;-72
2022/04/20 04:41:15;;;;;;;16.30;7.30;;;;;;;7.70;70.39;101266.13;5088796;28;20084;-72
2022/04/20 04:43:42;;;;;;;16.52;7.50;;;;;;;7.73;70.39;101276.44;5049141;28;20065;-71
2022/04/20 04:48:53;;;;;;;17.13;6.47;;;;;;;7.77;71.46;101274.53;5066446;28;20528;-73
2022/04/20 04:51:20;;;;;;;15.88;5.85;;;;;;;7.77;70.33;101277.28;5064851;28;20074;-72
2022/04/20 04:53:46;;;;;;;13.90;5.90;;;;;;;7.78;70.48;101276.13;5069842;28;20233;-72
2022/04/20 04:56:13;;;;;;;15.95;5.88;;;;;;;7.76;71.30;101275.66;5071520;28;20497;-72
2022/04/20 04:58:39;;;;;;;15.75;6.22;;;;;;;7.75;72.16;101280.41;5070766;28;20575;-72
2022/04/20 05:01:07;;;;;;;12.30;5.35;;;;;;;7.74;71.67;101272.50;5066368;28;20049;-73
2022/04/20 05:03:33;;;;;;;14.20;5.25;;;;;;;7.76;71.90;101275.66;5063989;28;20053;-73
2022/04/20 05:06:00;;;;;;;16.77;5.85;;;;;;;7.77;71.67;101278.06;5061562;28;20139;-73
2022/04/20 05:08:26;;;;;;;12.23;5.50;;;;;;;7.72;70.62;101270.09;5072091;28;20048;-72
2022/04/20 05:10:54;;;;;;;19.90;8.38;;;;;;;7.80;71.54;101293.09;5068758;28;20056;-74
2022/04/20 05:13:20;;;;;;;18.58;8.48;;;;;;;7.82;70.94;101276.97;5062769;28;20128;-72
2022/04/20 05:15:47;;;;;;;18.52;8.75;;;;;;;7.86;71.44;101275.88;5096406;28;20048;-72
2022/04/20 05:18:14;;;;;;;15.00;7.20;;;;;;;7.90;71.68;101279.50;5066543;28;20106;-72
2022/04/20 05:20:40;;;;;;;16.58;6.50;;;;;;;7.94;71.02;101285.09;5063539;28;20137;-71
2022/04/20 05:23:08;;;;;;;12.63;5.63;;;;;;;7.98;70.69;101277.66;5067980;28;20135;-74
2022/04/20 05:25:35;;;;;;;14.65;5.30;;;;;;;8.04;71.19;101279.75;5097522;28;20056;-72
2022/04/20 05:28:05;;;;;;;11.93;5.20;;;;;;;8.13;70.15;101281.47;5064442;28;20067;-72
2022/04/20 05:30:32;;;;;;;13.73;5.38;;;;;;;8.22;69.83;101277.34;5070578;28;20051;-72
2022/04/20 05:32:59;;;;;;;14.90;5.07;;;;;;;8.31;69.15;101277.09;5067159;28;20044;-72
2022/04/20 05:35:25;;;;;;;15.57;5.53;;;;;;;8.41;68.81;101284.75;5068112;28;20088;-74
2022/04/20 05:43:42;;;;;;;11.52;4.80;;;;;;;8.68;67.53;101284.41;5031861;28;20144;-74
2022/04/20 05:46:09;;;;;;;13.98;4.43;;;;;;;8.76;67.36;101286.09;5025225;28;20057;-74
2022/04/20 05:48:36;;;;;;;12.95;4.72;;;;;;;8.85;66.60;101283.09;5054356;28;20144;-74
2022/04/20 05:51:03;;;;;;;17.77;5.10;;;;;;;8.95;65.95;101287.97;5062539;28;20052;-71
2022/04/20 05:53:29;;;;;;;17.00;5.32;;;;;;;9.03;65.71;101279.41;5062818;28;20056;-71
2022/04/20 05:55:56;;;;;;;9.85;4.68;;;;;;;9.12;65.63;101284.66;5069226;28;20529;-72
2022/04/20 05:58:22;;;;;;;16.38;5.57;;;;;;;9.19;64.82;101284.75;5066325;28;20055;-76
2022/04/20 06:00:49;;;;;;;16.48;5.15;;;;;;;9.26;64.98;101279.31;5067837;28;20059;-75
2022/04/20 06:03:15;;;;;;;13.38;4.95;;;;;;;9.33;64.63;101279.41;5053636;28;20057;-75
2022/04/20 06:05:41;;;;;;;12.02;4.45;;;;;;;9.38;64.50;101270.81;5051643;28;20049;-76
2022/04/20 06:08:08;;;;;;;13.88;4.55;;;;;;;9.44;64.25;101272.03;5067641;28;20512;-74
2022/04/20 06:10:35;;;;;;;12.32;4.28;;;;;;;9.51;63.80;101272.94;5071887;28;20059;-76
2022/04/20 06:13:01;;;;;;;10.93;4.40;;;;;;;9.58;63.47;101278.53;5101119;28;20098;-75
2022/04/20 06:15:28;;;;;;;11.95;4.47;;;;;;;9.63;63.00;101269.13;5066611;28;20078;-76
2022/04/20 06:17:54;;;;;;;14.25;5.35;;;;;;;9.68;62.95;101272.34;5064502;28;20056;-75
2022/04/20 06:20:21;;;;;;;13.65;4.22;;;;;;;9.79;62.24;101270.47;5071166;28;20140;-76
2022/04/20 06:22:48;;;;;;;12.80;5.25;;;;;;;9.84;62.45;101270.16;5063296;28;20056;-75
2022/04/20 06:25:14;;;;;;;10.90;4.57;;;;;;;9.88;61.79;101259.94;5070886;28;20514;-75
2022/04/20 06:27:41;;;;;;;12.68;4.60;;;;;;;9.99;61.07;101271.09;5065296;28;20095;-74
2022/04/20 06:30:08;;;;;;;14.88;5.55;;;;;;;10.02;61.19;101265.59;5070499;28;20090;-75
2022/04/20 06:32:36;;;;;;;10.20;4.80;;;;;;;10.14;61.12;101267.31;5069185;28;20135;-73
2022/04/20 06:35:04;;;;;;;12.20;4.95;;;;;;;10.21;60.65;101270.97;5067459;28;20066;-76
2022/04/20 06:37:30;;;;;;;10.93;3.65;;;;;;;10.28;60.77;101271.03;5071021;28;20139;-75
2022/04/20 06:39:56;;;;;;;12.25;4.75;;;;;;;10.39;60.63;101280.19;5069978;28;20635;-74
2022/04/20 06:42:23;;;;;;;11.23;4.57;;;;;;;10.45;60.38;101281.44;5073418;28;20101;-74
2022/04/20 06:44:50;;;;;;;12.70;5.32;;;;;;;10.55;59.68;101288.22;5067336;28;20055;-78
2022/04/20 06:47:16;;;;;;;13.52;4.93;;;;;;;10.62;59.06;101274.44;5066752;28;20048;-75
2022/04/20 06:49:43;;;;;;;13.63;4.93;;;;;;;10.69;58.45;101277.25;5060108;28;20080;-77
2022/04/20 07:00:25;;;;;;;14.05;5.55;;;;;;;10.97;57.51;101260.06;5068285;28;20056;-73
2022/04/20 07:03:02;;;;;;;11.82;5.25;;;;;;;11.06;57.04;101269.59;5070420;28;20135;-73
2022/04/20 07:05:29;;;;;;;10.32;4.63;;;;;;;11.15;56.87;101263.72;5070138;28;20055;-74
2022/04/20 07:08:00;;;;;;;10.95;4.03;;;;;;;11.25;56.53;101266.53;5065971;28;20128;-75
2022/04/20 07:10:28;;;;;;;12.07;4.70;;;;;;;11.33;56.11;101262.63;5070374;28;20067;-73
2022/04/20 07:12:55;;;;;;;12.48;5.10;;;;;;;11.43;55.69;101275.72;5067816;28;20100;-74
2022/04/20 07:15:21;;;;;;;14.30;4.95;;;;;;;11.52;55.33;101269.81;5064647;28;20072;-74
2022/04/20 07:17:48;;;;;;;12.48;4.50;;;;;;;11.59;55.84;101264.28;5063403;28;21717;-73
2022/04/20 07:20:17;;;;;;;13.30;5.18;;;;;;;11.70;55.18;101273.47;5061470;28;20056;-71
2022/04/20 07:22:51;;;;;;;12.70;5.18;;;;;;;11.82;55.16;101273.91;5067687;28;20049;-71
2022/04/20 07:25:17;;;;;;;15.85;5.32;;;;;;;11.98;55.46;101265.25;5069676;28;20112;-74
2022/04/20 07:27:48;;;;;;;13.07;5.13;;;;;;;12.02;54.84;101274.34;5065881;28;20076;-68
2022/04/20 07:30:16;;;;;;;12.55;4.80;;;;;;;12.13;54.22;101278.72;5068630;28;20067;-73
2022/04/20 07:32:43;;;;;;;14.27;4.75;;;;;;;12.18;53.43;101277.53;5063769;28;20052;-72
2022/04/20 07:35:10;;;;;;;12.95;5.35;;;;;;;12.24;53.50;101278.72;5065952;28;20135;-73
2022/04/20 07:37:37;;;;;;;9.68;4.47;;;;;;;12.28;53.12;101283.09;5069073;28;20417;-72
2022/04/20 07:40:04;;;;;;;12.40;3.97;;;;;;;12.35;53.12;101277.56;5070765;28;20048;-74
2022/04/20 07:42:31;;;;;;;12.40;4.78;;;;;;;12.47;52.90;101282.72;5069832;28;20084;-72
2022/04/20 07:44:58;;;;;;;15.50;6.65;;;;;;;12.57;52.50;101293.03;5069161;28;20048;-72
2022/04/20 07:47:25;;;;;;;11.00;4.72;;;;;;;12.67;52.71;101291.44;5064007;28;20531;-72
2022/04/20 07:52:58;;;;;;;12.02;5.20;;;;;;;12.80;52.16;101290.63;5025262;28;20134;-72
2022/04/20 07:55:31;;;;;;;17.35;5.10;;;;;;;12.90;52.16;101289.03;5058136;28;20056;-72
2022/04/20 07:58:00;;;;;;;13.10;5.32;;;;;;;12.97;51.78;101280.69;5063289;28;20079;-76
2022/04/20 08:00:27;;;;;;;14.32;5.35;;;;;;;13.14;51.91;101292.97;5059759;28;213913;-73
2022/04/20 08:03:26;;;;;;;11.55;4.95;;;;;;;13.26;51.78;101287.78;5083671;28;20080;-72
2022/04/20 08:05:55;;;;;;;13.20;5.30;;;;;;;13.39;51.21;101297.28;5026071;28;20584;-71
2022/04/20 08:08:23;;;;;;;13.80;5.32;;;;;;;13.49;50.20;101293.66;5057164;28;20091;-73
2022/04/20 08:10:50;;;;;;;14.60;6.07;;;;;;;13.58;50.47;101296.81;5056506;28;20453;-73
2022/04/20 08:16:03;;;;;;;12.93;5.25;;;;;;;13.78;49.61;101291.56;5067169;28;20052;-73
2022/04/20 08:18:29;;;;;;;11.50;4.85;;;;;;;13.84;49.43;101293.50;5065660;28;20036;-74
2022/04/20 08:20:56;;;;;;;11.38;5.13;;;;;;;13.99;49.74;101300.56;5059690;28;20048;-76
2022/04/20 08:23:24;;;;;;;14.77;5.85;;;;;;;14.10;48.97;101300.50;5060771;28;20054;-71
2022/04/20 08:25:51;;;;;;;14.40;5.35;;;;;;;14.22;48.89;101295.31;5065157;28;20049;-73
2022/04/20 08:28:17;;;;;;;15.30;5.78;;;;;;;14.35;48.50;101290.81;5061828;28;20045;-72
2022/04/20 08:30:44;;;;;;;14.73;5.90;;;;;;;14.45;48.13;101300.28;5056058;28;20055;-69
2022/04/20 08:33:11;;;;;;;10.98;4.95;;;;;;;14.54;48.63;101290.28;5066225;28;20057;-72
2022/04/20 08:35:38;;;;;;;10.75;4.30;;;;;;;14.65;47.82;101299.31;5070761;28;20055;-72
2022/04/20 08:38:05;;;;;;;13.95;4.93;;;;;;;14.72;47.13;101304.06;5068043;28;20420;-74
2022/04/20 08:40:33;;;;;;;9.73;4.72;;;;;;;14.78;46.93;101302.41;5068447;28;20041;-74
2022/04/20 08:43:05;;;;;;;14.95;5.82;;;;;;;14.83;46.61;101299.16;5066896;28;20049;-74
2022/04/20 08:45:37;;;;;;;19.20;4.68;;;;;;;14.93;47.08;101304.66;5075599;28;20049;-74
2022/04/20 08:48:04;;;;;;;9.30;4.65;;;;;;;14.99;46.20;101293.84;5068225;28;20081;-74
2022/04/20 08:50:31;;;;;;;12.57;4.85;;;;;;;15.12;46.27;101300.50;5063921;28;20049;-73
2022/04/20 08:52:58;;;;;;;11.00;4.18;;;;;;;15.24;46.10;101297.16;5070373;28;20503;-75
2022/04/20 08:55:25;;;;;;;12.02;4.88;;;;;;;15.34;45.62;101297.06;5054361;28;20049;-74
2022/04/20 08:57:52;;;;;;;13.13;5.00;;;;;;;15.45;45.12;101291.38;5083368;28;20135;-73
2022/04/20 09:00:22;;;;;;;13.88;4.45;;;;;;;15.56;45.19;101302.41;5064379;28;20079;-75
2022/04/20 09:02:52;;;;;;;9.90;4.15;;;;;;;15.67;43.91;101297.47;5047667;28;20086;-73
2022/04/20 09:05:23;;;;;;;9.98;4.00;;;;;;;15.77;43.46;101299.34;5049767;28;20048;-73
2022/04/20 09:07:50;;;;;;;16.08;4.22;;;;;;;15.78;42.50;101303.69;5048651;28;20523;-75
2022/04/20 09:10:17;;;;;;;12.43;4.22;;;;;;;15.85;42.70;101295.25;5064150;28;20143;-74
2022/04/20 09:12:45;;;;;;;10.02;3.60;;;;;;;15.95;42.87;101291.50;5062636;28;20087;-78
2022/04/20 09:15:16;;;;;;;11.60;4.72;;;;;;;16.04;43.18;101289.00;5064968;28;20048;-71
2022/04/20 09:17:45;;;;;;;13.80;4.03;;;;;;;16.14;42.82;101282.47;5057138;28;20048;-77
2022/04/20 09:20:18;;;;;;;10.63;4.35;;;;;;;16.27;42.29;101278.66;5051132;28;20505;-74
2022/04/20 09:23:02;;;;;;;10.40;4.25;;;;;;;16.37;41.19;101274.91;5048995;28;20755;-76
2022/04/20 09:25:36;;;;;;;12.10;4.07;;;;;;;16.42;40.74;101265.28;5050101;28;20044;-74
2022/04/20 09:28:06;;;;;;;8.38;3.85;;;;;;;16.51;40.98;101276.72;5075621;28;20075;-72
2022/04/20 09:30:34;;;;;;;10.25;4.20;;;;;;;16.52;40.77;101265.13;5050469;28;20048;-75
2022/04/20 09:33:06;;;;;;;14.15;5.28;;;;;;;16.72;40.77;101262.41;5064331;28;20080;-77
2022/04/20 09:35:43;;;;;;;6.45;3.13;;;;;;;16.82;40.16;101264.22;5051220;28;20059;-75
2022/04/20 09:38:10;;;;;;;7.78;3.20;;;;;;;16.93;39.85;101259.22;5051566;28;20207;-78
2022/04/20 09:40:38;;;;;;;9.63;3.70;;;;;;;17.12;39.37;101258.47;5049051;28;20052;-73
2022/04/20 09:43:07;;;;;;;7.45;2.22;;;;;;;17.20;38.23;101254.31;5050325;28;20044;-74
2022/04/20 09:45:34;;;;;;;7.53;2.97;;;;;;;17.22;38.36;101251.88;5050211;28;20053;-73
2022/04/20 09:51:09;;;;;;;10.93;3.45;;;;;;;17.27;38.47;101242.97;5047623;28;20103;-74
2022/04/20 09:53:36;;;;;;;9.73;4.03;;;;;;;17.35;38.48;101250.03;5049589;28;20060;-75
2022/04/20 09:56:18;;;;;;;9.60;4.07;;;;;;;17.38;38.05;101252.72;5047927;28;20159;-77
2022/04/20 09:58:46;;;;;;;10.93;3.75;;;;;;;17.34;38.48;101249.22;5049626;28;20313;-76
2022/04/20 10:01:24;;;;;;;11.10;3.83;;;;;;;17.42;38.55;101244.31;5048869;28;20049;-76
2022/04/20 10:03:55;;;;;;;10.93;3.80;;;;;;;17.49;38.46;101241.34;5051542;28;20050;-75
2022/04/20 10:06:22;;;;;;;8.50;3.90;;;;;;;17.64;38.23;101235.03;5050462;28;20055;-75
2022/04/20 10:08:51;;;;;;;9.85;4.10;;;;;;;17.77;38.50;101229.53;5049721;28;20426;-76
2022/04/20 10:11:22;;;;;;;10.82;3.78;;;;;;;17.87;38.63;101236.91;5052541;28;21060;-76
2022/04/20 10:16:05;;;;;;;12.18;4.32;;;;;;;18.02;37.85;101238.16;5047602;28;21116;-75
2022/04/20 10:16:39;;;;;;;8.43;3.63;;;;;;;18.08;37.91;101239.22;5049175;28;20505;-74
2022/04/20 10:19:10;;;;;;;10.55;4.63;;;;;;;18.14;37.53;101236.69;5050571;28;20048;-70
2022/04/20 10:21:48;;;;;;;10.95;5.10;;;;;;;18.16;37.67;101225.84;5048901;28;20050;-71
2022/04/20 10:24:18;;;;;;;11.65;4.25;;;;;;;18.23;37.61;101220.88;5049964;28;20064;-77
2022/04/20 10:26:46;;;;;;;12.35;5.30;;;;;;;18.32;37.45;101212.63;5052210;28;20199;-77
2022/04/20 10:29:16;;;;;;;11.07;4.03;;;;;;;18.40;37.56;101216.88;5050623;28;20072;-76
2022/04/20 10:31:50;;;;;;;8.60;3.65;;;;;;;18.49;36.98;101213.44;5051586;28;20925;-76
2022/04/20 10:34:19;;;;;;;9.60;3.70;;;;;;;18.55;36.92;101215.25;5053777;28;20056;-78
2022/04/20 10:37:01;;;;;;;9.82;4.03;;;;;;;18.70;36.58;101210.84;5049679;28;20420;-74
2022/04/20 10:39:33;;;;;;;10.88;4.57;;;;;;;18.78;36.47;101203.84;5047755;28;20103;-78
2022/04/20 10:42:10;;;;;;;9.75;3.90;;;;;;;18.86;36.16;101198.84;5049921;28;20357;-75
2022/04/20 10:44:55;;;;;;;10.40;3.75;;;;;;;18.90;36.40;101191.88;5053045;28;20044;-76
2022/04/20 10:47:28;;;;;;;10.83;4.50;;;;;;;19.14;36.18;101196.00;5053040;28;20088;-74
2022/04/20 10:50:17;;;;;;;8.80;4.18;;;;;;;19.30;35.49;101184.75;5049970;28;20055;-76
2022/04/20 10:52:52;;;;;;;9.07;3.75;;;;;;;20.04;34.58;101172.00;5052568;28;20420;-77
2022/04/20 10:55:30;;;;;;;11.13;4.47;;;;;;;20.07;34.64;101179.53;5057833;28;20454;-75
2022/04/20 10:58:15;;;;;;;12.88;4.72;;;;;;;19.99;34.56;101175.38;5072337;28;20488;-74
2022/04/20 11:00:42;;;;;;;9.35;4.18;;;;;;;19.95;34.70;101174.69;5062980;28;20095;-75
2022/04/20 11:03:11;;;;;;;8.73;4.22;;;;;;;19.96;34.92;101162.25;5064532;28;20101;-75
2022/04/20 11:05:55;;;;;;;10.57;4.43;;;;;;;19.88;34.62;101169.31;5069159;28;20044;-76
2022/04/20 11:08:25;;;;;;;11.90;4.30;;;;;;;19.97;34.37;101168.63;5064453;28;20037;-74
2022/04/20 11:19:52;;;;;;;10.98;4.65;;;;;;;20.35;34.32;101164.56;5067221;28;20153;-79
2022/04/20 11:22:19;;;;;;;10.93;4.60;;;;;;;20.50;34.42;101155.63;5083811;28;20801;-77
2022/04/20 11:24:47;;;;;;;11.25;4.80;;;;;;;20.62;33.59;101157.63;5054166;28;20406;-79
2022/04/20 11:27:14;;;;;;;10.60;5.50;;;;;;;20.65;33.33;101156.72;5065829;28;20919;-77
2022/04/20 11:29:43;;;;;;;9.07;4.95;;;;;;;20.63;33.54;101145.94;5092029;28;20140;-77
2022/04/20 11:32:13;;;;;;;10.93;4.30;;;;;;;20.76;33.86;101151.50;5049082;28;20079;-77
2022/04/20 11:34:41;;;;;;;6.22;3.08;;;;;;;20.73;33.21;101147.56;5070403;28;20049;-78
2022/04/20 11:37:09;;;;;;;11.30;5.07;;;;;;;21.06;33.31;101148.00;5066553;28;20056;-77
2022/04/20 11:39:36;;;;;;;8.68;3.70;;;;;;;21.05;33.02;101144.38;5070059;28;20079;-78
2022/04/20 11:42:05;;;;;;;8.88;3.90;;;;;;;21.23;32.76;101155.00;5100526;28;20056;-77
2022/04/20 11:44:35;;;;;;;10.23;4.60;;;;;;;21.46;32.41;101148.88;5067718;28;20469;-77
2022/04/20 11:47:04;;;;;;;10.35;4.82;;;;;;;21.57;31.80;101140.78;5060094;28;20057;-77
2022/04/20 11:49:36;;;;;;;10.98;4.63;;;;;;;21.58;31.51;101142.34;5084103;28;20049;-78
2022/04/20 11:52:06;;;;;;;10.32;4.28;;;;;;;21.79;32.10;101139.50;5060268;28;20057;-77
2022/04/20 11:54:34;;;;;;;11.23;4.60;;;;;;;21.84;31.45;101140.94;5071334;28;20075;-77
2022/04/20 11:57:02;;;;;;;9.25;4.28;;;;;;;21.95;31.44;101132.81;5063080;28;20123;-78
2022/04/20 11:59:29;;;;;;;9.02;4.28;;;;;;;22.05;31.20;101137.22;5068308;28;20126;-78
2022/04/20 12:01:56;;;;;;;14.52;4.78;;;;;;;22.16;30.94;101134.75;5064874;28;20048;-76
2022/04/20 12:04:27;;;;;;;11.63;4.82;;;;;;;22.30;30.88;101131.31;5061084;28;20055;-78